sensor_id;sensor_type;location;lat;lon;timestamp;temperature;humidity
23991;DHT22;12205;50.600;4.608;2024-03-17T00:00:24;9.60;99.90
23991;DHT22;12205;50.600;4.608;2024-03-17T00:02:50;9.50;99.90
23991;DHT22;12205;50.600;4.608;2024-03-17T00:05:17;9.50;99.90
23991;DHT22;12205;50.600;4.608;2024-03-17T00:07:45;9.40;99.90
23991;DHT22;12205;50.600;4.608;2024-03-17T00:10:12;9.40;99.90
23991;DHT22;12205;50.600;4.608;2024-03-17T00:12:38;9.40;99.90
23991;DHT22;12205;50.600;4.608;2024-03-17T00:15:05;9.40;99.90
23991;DHT22;12205;50.600;4.608;2024-03-17T00:17:32;9.40;99.90
23991;DHT22;12205;50.600;4.608;2024-03-17T00:19:59;9.30;99.90
23991;DHT22;12205;50.600;4.608;2024-03-17T00:22:29;9.20;99.90
23991;DHT22;12205;50.600;4.608;2024-03-17T00:24:57;9.20;99.90
23991;DHT22;12205;50.600;4.608;2024-03-17T00:27:23;9.10;99.90
23991;DHT22;12205;50.600;4.608;2024-03-17T00:29:50;9.10;99.90
23991;DHT22;12205;50.600;4.608;2024-03-17T00:32:16;9.00;99.90
23991;DHT22;12205;50.600;4.608;2024-03-17T00:34:43;9.00;99.90
23991;DHT22;12205;50.600;4.608;2024-03-17T00:37:10;8.80;99.90
23991;DHT22;12205;50.600;4.608;2024-03-17T00:39:36;8.90;99.90
23991;DHT22;12205;50.600;4.608;2024-03-17T00:42:04;8.90;99.90
23991;DHT22;12205;50.600;4.608;2024-03-17T00:44:30;9.00;99.90
23991;DHT22;12205;50.600;4.608;2024-03-17T00:46:56;9.00;99.90
23991;DHT22;12205;50.600;4.608;2024-03-17T00:49:23;9.00;99.90
23991;DHT22;12205;50.600;4.608;2024-03-17T00:51:49;9.00;99.90
23991;DHT22;12205;50.600;4.608;2024-03-17T00:54:16;9.10;99.90
23991;DHT22;12205;50.600;4.608;2024-03-17T00:56:43;9.10;99.90
23991;DHT22;12205;50.600;4.608;2024-03-17T00:59:12;9.10;99.90
23991;DHT22;12205;50.600;4.608;2024-03-17T01:01:38;9.30;99.90
23991;DHT22;12205;50.600;4.608;2024-03-17T01:04:05;9.30;99.90
23991;DHT22;12205;50.600;4.608;2024-03-17T01:06:31;9.30;99.90
23991;DHT22;12205;50.600;4.608;2024-03-17T01:08:59;9.50;99.90
23991;DHT22;12205;50.600;4.608;2024-03-17T01:11:25;9.50;99.90
23991;DHT22;12205;50.600;4.608;2024-03-17T01:13:52;9.70;99.90
23991;DHT22;12205;50.600;4.608;2024-03-17T01:16:20;9.70;99.90
23991;DHT22;12205;50.600;4.608;2024-03-17T01:18:47;9.70;99.90
23991;DHT22;12205;50.600;4.608;2024-03-17T01:21:13;9.90;99.90
23991;DHT22;12205;50.600;4.608;2024-03-17T01:23:39;9.90;99.90
23991;DHT22;12205;50.600;4.608;2024-03-17T01:26:05;9.90;99.90
23991;DHT22;12205;50.600;4.608;2024-03-17T01:28:32;9.90;99.90
23991;DHT22;12205;50.600;4.608;2024-03-17T01:30:58;9.90;99.90
23991;DHT22;12205;50.600;4.608;2024-03-17T01:33:26;9.80;99.90
23991;DHT22;12205;50.600;4.608;2024-03-17T01:35:52;9.80;99.90
23991;DHT22;12205;50.600;4.608;2024-03-17T01:38:19;9.80;99.90
23991;DHT22;12205;50.600;4.608;2024-03-17T01:40:45;9.80;99.90
23991;DHT22;12205;50.600;4.608;2024-03-17T01:43:12;9.80;99.90
23991;DHT22;12205;50.600;4.608;2024-03-17T01:45:38;9.90;99.90
23991;DHT22;12205;50.600;4.608;2024-03-17T01:48:11;10.00;99.90
23991;DHT22;12205;50.600;4.608;2024-03-17T01:50:40;10.10;99.90
23991;DHT22;12205;50.600;4.608;2024-03-17T01:53:09;10.10;99.90
23991;DHT22;12205;50.600;4.608;2024-03-17T01:55:37;10.10;99.90
23991;DHT22;12205;50.600;4.608;2024-03-17T01:58:05;10.10;99.90
23991;DHT22;12205;50.600;4.608;2024-03-17T02:00:33;10.10;99.90
23991;DHT22;12205;50.600;4.608;2024-03-17T02:03:02;10.10;99.90
23991;DHT22;12205;50.600;4.608;2024-03-17T02:05:28;10.10;99.90
23991;DHT22;12205;50.600;4.608;2024-03-17T02:07:56;10.10;99.90
23991;DHT22;12205;50.600;4.608;2024-03-17T02:10:22;9.90;99.90
23991;DHT22;12205;50.600;4.608;2024-03-17T02:12:51;10.10;99.90
23991;DHT22;12205;50.600;4.608;2024-03-17T02:15:17;10.10;99.90
23991;DHT22;12205;50.600;4.608;2024-03-17T02:17:43;10.10;99.90
23991;DHT22;12205;50.600;4.608;2024-03-17T02:20:10;10.10;99.90
23991;DHT22;12205;50.600;4.608;2024-03-17T02:22:38;10.20;99.90
23991;DHT22;12205;50.600;4.608;2024-03-17T02:25:05;10.20;99.90
23991;DHT22;12205;50.600;4.608;2024-03-17T02:27:34;10.00;99.90
23991;DHT22;12205;50.600;4.608;2024-03-17T02:30:01;10.10;99.90
23991;DHT22;12205;50.600;4.608;2024-03-17T02:32:27;10.10;99.90
23991;DHT22;12205;50.600;4.608;2024-03-17T02:34:54;10.30;99.90
23991;DHT22;12205;50.600;4.608;2024-03-17T02:37:20;10.30;99.90
23991;DHT22;12205;50.600;4.608;2024-03-17T02:39:49;10.30;99.90
23991;DHT22;12205;50.600;4.608;2024-03-17T02:42:15;10.20;99.90
23991;DHT22;12205;50.600;4.608;2024-03-17T02:44:42;10.20;99.90
23991;DHT22;12205;50.600;4.608;2024-03-17T02:47:09;10.20;99.90
23991;DHT22;12205;50.600;4.608;2024-03-17T02:49:36;10.10;99.90
23991;DHT22;12205;50.600;4.608;2024-03-17T02:52:06;10.20;99.90
23991;DHT22;12205;50.600;4.608;2024-03-17T02:54:35;10.30;99.90
23991;DHT22;12205;50.600;4.608;2024-03-17T02:57:03;10.30;99.90
23991;DHT22;12205;50.600;4.608;2024-03-17T02:59:30;10.30;99.90
23991;DHT22;12205;50.600;4.608;2024-03-17T03:01:58;10.30;99.90
23991;DHT22;12205;50.600;4.608;2024-03-17T03:04:26;10.30;99.90
23991;DHT22;12205;50.600;4.608;2024-03-17T03:06:53;10.30;99.90
23991;DHT22;12205;50.600;4.608;2024-03-17T03:09:20;10.40;99.90
23991;DHT22;12205;50.600;4.608;2024-03-17T03:11:51;10.40;99.90
23991;DHT22;12205;50.600;4.608;2024-03-17T03:14:19;10.30;99.90
23991;DHT22;12205;50.600;4.608;2024-03-17T03:16:47;10.30;99.90
23991;DHT22;12205;50.600;4.608;2024-03-17T03:19:15;10.30;99.90
23991;DHT22;12205;50.600;4.608;2024-03-17T03:21:42;10.30;99.90
23991;DHT22;12205;50.600;4.608;2024-03-17T03:24:08;10.40;99.90
23991;DHT22;12205;50.600;4.608;2024-03-17T03:26:35;10.30;99.90
23991;DHT22;12205;50.600;4.608;2024-03-17T03:29:02;10.20;99.90
23991;DHT22;12205;50.600;4.608;2024-03-17T03:31:31;10.20;99.90
23991;DHT22;12205;50.600;4.608;2024-03-17T03:33:58;10.10;99.90
23991;DHT22;12205;50.600;4.608;2024-03-17T03:36:27;10.00;99.90
23991;DHT22;12205;50.600;4.608;2024-03-17T03:38:54;10.00;99.90
23991;DHT22;12205;50.600;4.608;2024-03-17T03:41:23;9.90;99.90
23991;DHT22;12205;50.600;4.608;2024-03-17T03:43:51;9.80;99.90
23991;DHT22;12205;50.600;4.608;2024-03-17T03:46:18;9.70;99.90
23991;DHT22;12205;50.600;4.608;2024-03-17T03:48:46;9.70;99.90
23991;DHT22;12205;50.600;4.608;2024-03-17T03:51:13;9.60;99.90
23991;DHT22;12205;50.600;4.608;2024-03-17T03:53:40;9.60;99.90
23991;DHT22;12205;50.600;4.608;2024-03-17T03:56:08;9.70;99.90
23991;DHT22;12205;50.600;4.608;2024-03-17T03:58:36;9.50;99.90
23991;DHT22;12205;50.600;4.608;2024-03-17T04:01:04;9.50;99.90
23991;DHT22;12205;50.600;4.608;2024-03-17T04:03:31;9.40;99.90
23991;DHT22;12205;50.600;4.608;2024-03-17T04:06:05;9.20;99.90
23991;DHT22;12205;50.600;4.608;2024-03-17T04:08:33;9.20;99.90
23991;DHT22;12205;50.600;4.608;2024-03-17T04:11:00;9.00;99.90
23991;DHT22;12205;50.600;4.608;2024-03-17T04:13:28;9.00;99.90
23991;DHT22;12205;50.600;4.608;2024-03-17T04:15:56;9.00;99.90
23991;DHT22;12205;50.600;4.608;2024-03-17T04:18:24;8.90;99.90
23991;DHT22;12205;50.600;4.608;2024-03-17T04:20:52;8.90;99.90
23991;DHT22;12205;50.600;4.608;2024-03-17T04:23:21;8.90;99.90
23991;DHT22;12205;50.600;4.608;2024-03-17T04:25:48;8.90;99.90
23991;DHT22;12205;50.600;4.608;2024-03-17T04:28:15;9.00;99.90
23991;DHT22;12205;50.600;4.608;2024-03-17T04:30:42;9.00;99.90
23991;DHT22;12205;50.600;4.608;2024-03-17T04:33:10;9.00;99.90
23991;DHT22;12205;50.600;4.608;2024-03-17T04:35:37;9.00;99.90
23991;DHT22;12205;50.600;4.608;2024-03-17T04:38:04;9.10;99.90
23991;DHT22;12205;50.600;4.608;2024-03-17T04:40:33;9.10;99.90
23991;DHT22;12205;50.600;4.608;2024-03-17T04:43:01;9.10;99.90
23991;DHT22;12205;50.600;4.608;2024-03-17T04:45:27;9.10;99.90
23991;DHT22;12205;50.600;4.608;2024-03-17T04:47:54;9.20;99.90
23991;DHT22;12205;50.600;4.608;2024-03-17T04:50:21;9.10;99.90
23991;DHT22;12205;50.600;4.608;2024-03-17T04:52:48;9.10;99.90
23991;DHT22;12205;50.600;4.608;2024-03-17T04:55:16;9.30;99.90
23991;DHT22;12205;50.600;4.608;2024-03-17T04:57:45;9.30;99.90
23991;DHT22;12205;50.600;4.608;2024-03-17T05:00:13;9.30;99.90
23991;DHT22;12205;50.600;4.608;2024-03-17T05:02:41;9.20;99.90
23991;DHT22;12205;50.600;4.608;2024-03-17T05:05:08;9.10;99.90
23991;DHT22;12205;50.600;4.608;2024-03-17T05:07:36;9.10;99.90
23991;DHT22;12205;50.600;4.608;2024-03-17T05:10:04;9.20;99.90
23991;DHT22;12205;50.600;4.608;2024-03-17T05:12:31;9.20;99.90
23991;DHT22;12205;50.600;4.608;2024-03-17T05:14:59;9.20;99.90
23991;DHT22;12205;50.600;4.608;2024-03-17T05:17:26;9.10;99.90
23991;DHT22;12205;50.600;4.608;2024-03-17T05:19:53;9.30;99.90
23991;DHT22;12205;50.600;4.608;2024-03-17T05:22:20;9.20;99.90
23991;DHT22;12205;50.600;4.608;2024-03-17T05:24:47;9.30;99.90
23991;DHT22;12205;50.600;4.608;2024-03-17T05:27:14;9.30;99.90
23991;DHT22;12205;50.600;4.608;2024-03-17T05:29:40;9.40;99.90
23991;DHT22;12205;50.600;4.608;2024-03-17T05:32:08;9.40;99.90
23991;DHT22;12205;50.600;4.608;2024-03-17T05:34:35;9.40;99.90
23991;DHT22;12205;50.600;4.608;2024-03-17T05:37:02;9.50;99.90
23991;DHT22;12205;50.600;4.608;2024-03-17T05:39:29;9.50;99.90
23991;DHT22;12205;50.600;4.608;2024-03-17T05:41:56;9.40;99.90
23991;DHT22;12205;50.600;4.608;2024-03-17T05:44:23;9.40;99.90
23991;DHT22;12205;50.600;4.608;2024-03-17T05:46:50;9.50;99.90
23991;DHT22;12205;50.600;4.608;2024-03-17T05:49:20;9.60;99.90
23991;DHT22;12205;50.600;4.608;2024-03-17T05:51:47;9.50;99.90
23991;DHT22;12205;50.600;4.608;2024-03-17T05:54:14;9.50;99.90
23991;DHT22;12205;50.600;4.608;2024-03-17T05:56:41;9.50;99.90
23991;DHT22;12205;50.600;4.608;2024-03-17T05:59:08;9.60;99.90
23991;DHT22;12205;50.600;4.608;2024-03-17T06:01:35;9.70;99.90
23991;DHT22;12205;50.600;4.608;2024-03-17T06:04:02;9.80;99.90
23991;DHT22;12205;50.600;4.608;2024-03-17T06:06:31;9.70;99.90
23991;DHT22;12205;50.600;4.608;2024-03-17T06:08:58;9.80;99.90
23991;DHT22;12205;50.600;4.608;2024-03-17T06:11:25;9.80;99.90
23991;DHT22;12205;50.600;4.608;2024-03-17T06:13:52;9.90;99.90
23991;DHT22;12205;50.600;4.608;2024-03-17T06:16:19;10.00;99.90
23991;DHT22;12205;50.600;4.608;2024-03-17T06:18:46;9.90;99.90
23991;DHT22;12205;50.600;4.608;2024-03-17T06:21:16;10.00;99.90
23991;DHT22;12205;50.600;4.608;2024-03-17T06:23:44;10.00;99.90
23991;DHT22;12205;50.600;4.608;2024-03-17T06:26:12;10.10;99.90
23991;DHT22;12205;50.600;4.608;2024-03-17T06:28:39;10.20;99.90
23991;DHT22;12205;50.600;4.608;2024-03-17T06:31:07;10.20;99.90
23991;DHT22;12205;50.600;4.608;2024-03-17T06:33:35;10.20;99.90
23991;DHT22;12205;50.600;4.608;2024-03-17T06:36:03;10.30;99.90
23991;DHT22;12205;50.600;4.608;2024-03-17T06:38:30;10.40;99.90
23991;DHT22;12205;50.600;4.608;2024-03-17T06:40:58;10.50;99.90
23991;DHT22;12205;50.600;4.608;2024-03-17T06:43:25;10.50;99.90
23991;DHT22;12205;50.600;4.608;2024-03-17T06:45:55;10.50;99.90
23991;DHT22;12205;50.600;4.608;2024-03-17T06:48:22;10.70;99.90
23991;DHT22;12205;50.600;4.608;2024-03-17T06:50:49;10.50;99.90
23991;DHT22;12205;50.600;4.608;2024-03-17T06:53:17;10.50;99.90
23991;DHT22;12205;50.600;4.608;2024-03-17T06:55:52;10.40;99.90
23991;DHT22;12205;50.600;4.608;2024-03-17T06:58:21;10.50;99.90
23991;DHT22;12205;50.600;4.608;2024-03-17T07:00:56;10.70;99.90
23991;DHT22;12205;50.600;4.608;2024-03-17T07:03:24;10.90;99.90
23991;DHT22;12205;50.600;4.608;2024-03-17T07:05:53;10.90;99.90
23991;DHT22;12205;50.600;4.608;2024-03-17T07:08:20;10.90;99.90
23991;DHT22;12205;50.600;4.608;2024-03-17T07:10:57;10.80;99.90
23991;DHT22;12205;50.600;4.608;2024-03-17T07:13:27;11.00;99.90
23991;DHT22;12205;50.600;4.608;2024-03-17T07:15:54;11.00;99.90
23991;DHT22;12205;50.600;4.608;2024-03-17T07:18:21;11.10;99.90
23991;DHT22;12205;50.600;4.608;2024-03-17T07:20:48;11.00;99.90
23991;DHT22;12205;50.600;4.608;2024-03-17T07:23:15;11.00;99.90
23991;DHT22;12205;50.600;4.608;2024-03-17T07:25:42;11.10;99.90
23991;DHT22;12205;50.600;4.608;2024-03-17T07:28:17;11.20;99.90
23991;DHT22;12205;50.600;4.608;2024-03-17T07:30:48;11.10;99.90
23991;DHT22;12205;50.600;4.608;2024-03-17T07:33:15;11.20;99.90
23991;DHT22;12205;50.600;4.608;2024-03-17T07:35:47;11.40;99.90
23991;DHT22;12205;50.600;4.608;2024-03-17T07:38:14;11.50;99.90
23991;DHT22;12205;50.600;4.608;2024-03-17T07:40:41;11.60;99.90
23991;DHT22;12205;50.600;4.608;2024-03-17T07:43:08;11.70;99.90
23991;DHT22;12205;50.600;4.608;2024-03-17T07:45:35;11.90;99.90
23991;DHT22;12205;50.600;4.608;2024-03-17T07:48:04;11.80;99.90
23991;DHT22;12205;50.600;4.608;2024-03-17T07:50:31;11.90;99.90
23991;DHT22;12205;50.600;4.608;2024-03-17T07:53:00;11.90;99.90
23991;DHT22;12205;50.600;4.608;2024-03-17T07:55:28;12.10;99.90
23991;DHT22;12205;50.600;4.608;2024-03-17T07:57:56;12.10;99.90
23991;DHT22;12205;50.600;4.608;2024-03-17T08:00:23;12.00;99.90
23991;DHT22;12205;50.600;4.608;2024-03-17T08:02:50;11.90;99.90
23991;DHT22;12205;50.600;4.608;2024-03-17T08:05:18;11.90;99.90
23991;DHT22;12205;50.600;4.608;2024-03-17T08:07:45;11.90;99.90
23991;DHT22;12205;50.600;4.608;2024-03-17T08:10:12;12.00;99.90
23991;DHT22;12205;50.600;4.608;2024-03-17T08:12:38;12.20;99.90
23991;DHT22;12205;50.600;4.608;2024-03-17T08:15:06;12.20;99.90
23991;DHT22;12205;50.600;4.608;2024-03-17T08:17:34;12.30;99.90
23991;DHT22;12205;50.600;4.608;2024-03-17T08:20:01;12.50;99.90
23991;DHT22;12205;50.600;4.608;2024-03-17T08:22:29;12.60;99.90
23991;DHT22;12205;50.600;4.608;2024-03-17T08:24:56;12.70;99.90
23991;DHT22;12205;50.600;4.608;2024-03-17T08:27:22;12.80;99.90
23991;DHT22;12205;50.600;4.608;2024-03-17T08:29:49;12.90;99.90
23991;DHT22;12205;50.600;4.608;2024-03-17T08:32:16;12.70;99.90
23991;DHT22;12205;50.600;4.608;2024-03-17T08:34:46;12.60;99.90
23991;DHT22;12205;50.600;4.608;2024-03-17T08:37:14;12.50;99.90
23991;DHT22;12205;50.600;4.608;2024-03-17T08:39:42;12.90;99.90
23991;DHT22;12205;50.600;4.608;2024-03-17T08:42:09;13.10;99.90
23991;DHT22;12205;50.600;4.608;2024-03-17T08:44:35;13.20;99.90
23991;DHT22;12205;50.600;4.608;2024-03-17T08:47:03;13.20;99.90
23991;DHT22;12205;50.600;4.608;2024-03-17T08:49:29;13.20;99.90
23991;DHT22;12205;50.600;4.608;2024-03-17T08:51:56;13.10;99.90
23991;DHT22;12205;50.600;4.608;2024-03-17T08:54:23;13.20;99.90
23991;DHT22;12205;50.600;4.608;2024-03-17T08:56:52;13.30;99.90
23991;DHT22;12205;50.600;4.608;2024-03-17T08:59:19;13.20;99.90
23991;DHT22;12205;50.600;4.608;2024-03-17T09:01:46;13.40;99.90
23991;DHT22;12205;50.600;4.608;2024-03-17T09:04:12;13.50;99.90
23991;DHT22;12205;50.600;4.608;2024-03-17T09:06:39;13.40;99.90
23991;DHT22;12205;50.600;4.608;2024-03-17T09:09:07;13.20;99.90
23991;DHT22;12205;50.600;4.608;2024-03-17T09:11:34;13.30;99.90
23991;DHT22;12205;50.600;4.608;2024-03-17T09:14:02;13.60;99.90
23991;DHT22;12205;50.600;4.608;2024-03-17T09:16:29;13.80;99.90
23991;DHT22;12205;50.600;4.608;2024-03-17T09:18:57;14.00;99.90
23991;DHT22;12205;50.600;4.608;2024-03-17T09:21:24;14.30;99.90
23991;DHT22;12205;50.600;4.608;2024-03-17T09:23:51;14.40;99.90
23991;DHT22;12205;50.600;4.608;2024-03-17T09:26:18;14.80;99.90
23991;DHT22;12205;50.600;4.608;2024-03-17T09:28:45;14.80;99.90
23991;DHT22;12205;50.600;4.608;2024-03-17T09:31:13;15.00;99.90
23991;DHT22;12205;50.600;4.608;2024-03-17T09:33:40;15.10;99.90
23991;DHT22;12205;50.600;4.608;2024-03-17T09:36:08;15.30;99.90
23991;DHT22;12205;50.600;4.608;2024-03-17T09:38:37;15.00;99.90
23991;DHT22;12205;50.600;4.608;2024-03-17T09:41:05;15.30;99.90
23991;DHT22;12205;50.600;4.608;2024-03-17T09:43:33;15.50;99.90
23991;DHT22;12205;50.600;4.608;2024-03-17T09:46:02;15.40;99.90
23991;DHT22;12205;50.600;4.608;2024-03-17T09:48:30;15.10;99.90
23991;DHT22;12205;50.600;4.608;2024-03-17T09:50:59;14.50;99.90
23991;DHT22;12205;50.600;4.608;2024-03-17T09:53:27;14.60;99.90
23991;DHT22;12205;50.600;4.608;2024-03-17T09:55:58;14.80;99.90
23991;DHT22;12205;50.600;4.608;2024-03-17T09:58:25;14.80;99.90
23991;DHT22;12205;50.600;4.608;2024-03-17T10:00:52;14.70;99.90
23991;DHT22;12205;50.600;4.608;2024-03-17T10:03:45;14.60;99.90
23991;DHT22;12205;50.600;4.608;2024-03-17T10:06:16;15.20;99.90
23991;DHT22;12205;50.600;4.608;2024-03-17T10:08:44;14.30;99.90
23991;DHT22;12205;50.600;4.608;2024-03-17T10:11:12;14.20;99.90
23991;DHT22;12205;50.600;4.608;2024-03-17T10:13:41;14.50;99.90
23991;DHT22;12205;50.600;4.608;2024-03-17T10:16:21;14.30;99.90
23991;DHT22;12205;50.600;4.608;2024-03-17T10:18:50;14.00;99.90
23991;DHT22;12205;50.600;4.608;2024-03-17T10:21:25;14.30;99.90
23991;DHT22;12205;50.600;4.608;2024-03-17T10:24:05;14.50;99.90
23991;DHT22;12205;50.600;4.608;2024-03-17T10:26:35;14.60;99.90
23991;DHT22;12205;50.600;4.608;2024-03-17T10:29:02;14.40;99.90
23991;DHT22;12205;50.600;4.608;2024-03-17T10:31:30;14.50;99.90
23991;DHT22;12205;50.600;4.608;2024-03-17T10:34:02;14.50;99.90
23991;DHT22;12205;50.600;4.608;2024-03-17T10:36:29;14.40;99.90
23991;DHT22;12205;50.600;4.608;2024-03-17T10:38:56;14.20;99.90
23991;DHT22;12205;50.600;4.608;2024-03-17T10:41:23;14.70;99.90
23991;DHT22;12205;50.600;4.608;2024-03-17T10:43:53;14.90;99.90
23991;DHT22;12205;50.600;4.608;2024-03-17T10:46:21;15.10;99.90
23991;DHT22;12205;50.600;4.608;2024-03-17T10:48:50;15.00;99.90
23991;DHT22;12205;50.600;4.608;2024-03-17T10:51:20;15.20;99.90
23991;DHT22;12205;50.600;4.608;2024-03-17T10:53:48;15.20;99.90
23991;DHT22;12205;50.600;4.608;2024-03-17T10:56:19;15.20;99.90
23991;DHT22;12205;50.600;4.608;2024-03-17T10:58:48;15.10;99.90
23991;DHT22;12205;50.600;4.608;2024-03-17T11:01:19;15.40;99.90
23991;DHT22;12205;50.600;4.608;2024-03-17T11:03:46;15.40;99.90
23991;DHT22;12205;50.600;4.608;2024-03-17T11:06:17;15.60;99.90
23991;DHT22;12205;50.600;4.608;2024-03-17T11:08:45;15.90;99.90
23991;DHT22;12205;50.600;4.608;2024-03-17T11:11:12;16.00;99.90
23991;DHT22;12205;50.600;4.608;2024-03-17T11:13:39;15.90;99.90
23991;DHT22;12205;50.600;4.608;2024-03-17T11:16:25;16.10;99.90
23991;DHT22;12205;50.600;4.608;2024-03-17T11:18:52;16.30;99.90
23991;DHT22;12205;50.600;4.608;2024-03-17T11:21:21;16.30;99.90
23991;DHT22;12205;50.600;4.608;2024-03-17T11:23:57;16.70;99.90
23991;DHT22;12205;50.600;4.608;2024-03-17T11:26:32;17.20;99.90
23991;DHT22;12205;50.600;4.608;2024-03-17T11:29:01;17.60;99.90
23991;DHT22;12205;50.600;4.608;2024-03-17T11:31:43;17.60;99.90
23991;DHT22;12205;50.600;4.608;2024-03-17T11:34:34;17.30;99.90
23991;DHT22;12205;50.600;4.608;2024-03-17T11:37:03;17.40;99.90
23991;DHT22;12205;50.600;4.608;2024-03-17T11:39:51;17.30;99.90
23991;DHT22;12205;50.600;4.608;2024-03-17T11:42:28;17.60;99.90
23991;DHT22;12205;50.600;4.608;2024-03-17T11:44:59;17.60;99.90
23991;DHT22;12205;50.600;4.608;2024-03-17T11:47:39;17.60;99.90
23991;DHT22;12205;50.600;4.608;2024-03-17T11:50:08;17.50;99.90
23991;DHT22;12205;50.600;4.608;2024-03-17T11:52:37;17.50;99.90
23991;DHT22;12205;50.600;4.608;2024-03-17T11:55:05;18.00;99.90
23991;DHT22;12205;50.600;4.608;2024-03-17T11:57:32;18.50;99.90
23991;DHT22;12205;50.600;4.608;2024-03-17T11:59:58;18.20;99.90
23991;DHT22;12205;50.600;4.608;2024-03-17T12:02:26;18.30;99.90
23991;DHT22;12205;50.600;4.608;2024-03-17T12:04:53;18.80;99.90
23991;DHT22;12205;50.600;4.608;2024-03-17T12:07:21;19.20;99.90
23991;DHT22;12205;50.600;4.608;2024-03-17T12:09:49;19.20;99.90
23991;DHT22;12205;50.600;4.608;2024-03-17T12:12:19;19.10;99.90
23991;DHT22;12205;50.600;4.608;2024-03-17T12:14:46;19.00;99.90
23991;DHT22;12205;50.600;4.608;2024-03-17T12:17:15;18.80;99.90
23991;DHT22;12205;50.600;4.608;2024-03-17T12:19:44;18.90;99.90
23991;DHT22;12205;50.600;4.608;2024-03-17T12:22:16;19.40;99.90
23991;DHT22;12205;50.600;4.608;2024-03-17T12:24:44;19.50;99.90
23991;DHT22;12205;50.600;4.608;2024-03-17T12:27:18;19.90;99.90
23991;DHT22;12205;50.600;4.608;2024-03-17T12:29:45;21.30;99.90
23991;DHT22;12205;50.600;4.608;2024-03-17T12:32:14;21.50;99.90
23991;DHT22;12205;50.600;4.608;2024-03-17T12:34:40;20.60;99.90
23991;DHT22;12205;50.600;4.608;2024-03-17T12:37:08;20.10;99.90
23991;DHT22;12205;50.600;4.608;2024-03-17T12:39:35;21.00;99.90
23991;DHT22;12205;50.600;4.608;2024-03-17T12:42:06;22.80;99.90
23991;DHT22;12205;50.600;4.608;2024-03-17T12:44:35;23.50;99.90
23991;DHT22;12205;50.600;4.608;2024-03-17T12:47:04;21.90;99.90
23991;DHT22;12205;50.600;4.608;2024-03-17T12:49:31;21.40;99.90
23991;DHT22;12205;50.600;4.608;2024-03-17T12:51:58;21.00;99.90
23991;DHT22;12205;50.600;4.608;2024-03-17T12:54:26;20.60;99.90
23991;DHT22;12205;50.600;4.608;2024-03-17T12:57:04;19.90;99.90
23991;DHT22;12205;50.600;4.608;2024-03-17T12:59:50;20.00;99.90
23991;DHT22;12205;50.600;4.608;2024-03-17T13:02:34;19.40;99.90
23991;DHT22;12205;50.600;4.608;2024-03-17T13:05:17;18.80;99.90
23991;DHT22;12205;50.600;4.608;2024-03-17T13:07:46;18.70;99.90
23991;DHT22;12205;50.600;4.608;2024-03-17T13:10:14;18.80;99.90
23991;DHT22;12205;50.600;4.608;2024-03-17T13:12:42;18.20;99.90
23991;DHT22;12205;50.600;4.608;2024-03-17T13:15:12;18.00;99.90
23991;DHT22;12205;50.600;4.608;2024-03-17T13:17:40;17.80;99.90
23991;DHT22;12205;50.600;4.608;2024-03-17T13:20:12;17.40;99.90
23991;DHT22;12205;50.600;4.608;2024-03-17T13:22:41;17.60;99.90
23991;DHT22;12205;50.600;4.608;2024-03-17T13:25:13;17.80;99.90
23991;DHT22;12205;50.600;4.608;2024-03-17T13:27:40;18.20;99.90
23991;DHT22;12205;50.600;4.608;2024-03-17T13:30:09;18.60;99.90
23991;DHT22;12205;50.600;4.608;2024-03-17T13:32:36;18.80;99.90
23991;DHT22;12205;50.600;4.608;2024-03-17T13:35:05;18.90;99.90
23991;DHT22;12205;50.600;4.608;2024-03-17T13:37:34;18.90;99.90
23991;DHT22;12205;50.600;4.608;2024-03-17T13:40:03;19.10;99.90
23991;DHT22;12205;50.600;4.608;2024-03-17T13:42:31;18.80;99.90
23991;DHT22;12205;50.600;4.608;2024-03-17T13:44:58;18.60;99.90
23991;DHT22;12205;50.600;4.608;2024-03-17T13:47:26;18.80;99.90
23991;DHT22;12205;50.600;4.608;2024-03-17T13:49:53;18.50;99.90
23991;DHT22;12205;50.600;4.608;2024-03-17T13:52:20;18.90;99.90
23991;DHT22;12205;50.600;4.608;2024-03-17T13:54:47;18.90;99.90
23991;DHT22;12205;50.600;4.608;2024-03-17T13:57:14;18.60;99.90
23991;DHT22;12205;50.600;4.608;2024-03-17T13:59:42;18.40;99.90
23991;DHT22;12205;50.600;4.608;2024-03-17T14:02:12;18.30;99.90
23991;DHT22;12205;50.600;4.608;2024-03-17T14:04:40;18.20;99.90
23991;DHT22;12205;50.600;4.608;2024-03-17T14:07:07;18.30;99.90
23991;DHT22;12205;50.600;4.608;2024-03-17T14:09:34;18.30;99.90
23991;DHT22;12205;50.600;4.608;2024-03-17T14:12:01;18.30;99.90
23991;DHT22;12205;50.600;4.608;2024-03-17T14:14:28;18.50;99.90
23991;DHT22;12205;50.600;4.608;2024-03-17T14:16:55;18.20;99.90
23991;DHT22;12205;50.600;4.608;2024-03-17T14:19:22;18.40;99.90
23991;DHT22;12205;50.600;4.608;2024-03-17T14:21:50;18.30;99.90
23991;DHT22;12205;50.600;4.608;2024-03-17T14:24:17;18.00;99.90
23991;DHT22;12205;50.600;4.608;2024-03-17T14:26:44;18.00;99.90
23991;DHT22;12205;50.600;4.608;2024-03-17T14:29:11;17.60;99.90
23991;DHT22;12205;50.600;4.608;2024-03-17T14:31:37;17.40;99.90
23991;DHT22;12205;50.600;4.608;2024-03-17T14:34:05;17.30;99.90
23991;DHT22;12205;50.600;4.608;2024-03-17T14:36:32;17.40;99.90
23991;DHT22;12205;50.600;4.608;2024-03-17T14:39:01;17.20;99.90
23991;DHT22;12205;50.600;4.608;2024-03-17T14:41:28;16.90;99.90
23991;DHT22;12205;50.600;4.608;2024-03-17T14:43:56;16.80;99.90
23991;DHT22;12205;50.600;4.608;2024-03-17T14:46:23;16.80;99.90
23991;DHT22;12205;50.600;4.608;2024-03-17T14:48:49;16.70;99.90
23991;DHT22;12205;50.600;4.608;2024-03-17T14:51:17;16.70;99.90
23991;DHT22;12205;50.600;4.608;2024-03-17T14:53:44;16.60;99.90
23991;DHT22;12205;50.600;4.608;2024-03-17T14:56:16;16.90;99.90
23991;DHT22;12205;50.600;4.608;2024-03-17T14:58:43;16.90;99.90
23991;DHT22;12205;50.600;4.608;2024-03-17T15:01:11;16.90;99.90
23991;DHT22;12205;50.600;4.608;2024-03-17T15:03:39;17.00;99.90
23991;DHT22;12205;50.600;4.608;2024-03-17T15:06:09;17.10;99.90
23991;DHT22;12205;50.600;4.608;2024-03-17T15:08:36;17.20;99.90
23991;DHT22;12205;50.600;4.608;2024-03-17T15:11:03;17.70;99.90
23991;DHT22;12205;50.600;4.608;2024-03-17T15:13:32;17.50;99.90
23991;DHT22;12205;50.600;4.608;2024-03-17T15:15:59;17.20;99.90
23991;DHT22;12205;50.600;4.608;2024-03-17T15:18:27;16.70;99.90
23991;DHT22;12205;50.600;4.608;2024-03-17T15:20:54;16.20;99.90
23991;DHT22;12205;50.600;4.608;2024-03-17T15:23:21;15.90;99.90
23991;DHT22;12205;50.600;4.608;2024-03-17T15:25:59;16.00;99.90
23991;DHT22;12205;50.600;4.608;2024-03-17T15:28:26;16.10;99.90
23991;DHT22;12205;50.600;4.608;2024-03-17T15:30:55;15.90;99.90
23991;DHT22;12205;50.600;4.608;2024-03-17T15:33:25;16.00;99.90
23991;DHT22;12205;50.600;4.608;2024-03-17T15:35:52;16.20;99.90
23991;DHT22;12205;50.600;4.608;2024-03-17T15:38:20;16.20;99.90
23991;DHT22;12205;50.600;4.608;2024-03-17T15:40:47;16.10;99.90